createdAt,value
2022-11-17T00:00:53.112Z,3.23
2022-11-17T00:03:41.485Z,3.80
2022-11-17T00:06:29.888Z,4.73
2022-11-17T00:09:18.322Z,2.10
2022-11-17T00:12:28.476Z,3.87
2022-11-17T00:15:20.920Z,3.83
2022-11-17T00:18:28.369Z,4.77
2022-11-17T00:21:23.802Z,4.43
2022-11-17T00:24:12.432Z,6.23
2022-11-17T00:27:03.700Z,5.17
2022-11-17T00:29:52.093Z,4.77
2022-11-17T00:32:57.974Z,3.47
2022-11-17T00:35:51.797Z,3.87
2022-11-17T00:38:40.211Z,3.60
2022-11-17T00:41:28.741Z,3.53
2022-11-17T00:44:17.588Z,5.20
2022-11-17T00:47:06.117Z,3.87
2022-11-17T00:49:54.533Z,3.30
2022-11-17T00:52:44.296Z,4.30
2022-11-17T00:55:32.849Z,4.57
2022-11-17T00:58:21.349Z,4.50
2022-11-17T01:01:09.885Z,4.37
2022-11-17T01:04:03.969Z,3.43
2022-11-17T01:06:52.755Z,3.33
2022-11-17T01:09:42.568Z,3.77
2022-11-17T01:12:30.881Z,3.87
2022-11-17T01:15:19.425Z,4.03
2022-11-17T01:18:07.771Z,3.97
2022-11-17T01:20:56.100Z,4.03
2022-11-17T01:23:45.124Z,2.67
2022-11-17T01:26:36.206Z,3.27
2022-11-17T01:29:24.553Z,3.83
2022-11-17T01:32:12.872Z,4.67
2022-11-17T01:35:01.229Z,4.40
2022-11-17T01:37:49.642Z,2.97
2022-11-17T01:40:38.008Z,4.23
2022-11-17T01:43:44.613Z,2.83
2022-11-17T01:46:33.781Z,3.43
2022-11-17T01:49:23.999Z,4.20
2022-11-17T01:52:12.366Z,3.00
2022-11-17T01:55:00.760Z,7.37
2022-11-17T01:57:51.285Z,4.70
2022-11-17T02:00:41.007Z,2.77
2022-11-17T02:03:29.656Z,3.73
2022-11-17T02:06:22.169Z,5.33
2022-11-17T02:09:10.588Z,3.27
2022-11-17T02:11:59.110Z,4.23
2022-11-17T02:14:47.555Z,6.07
2022-11-17T02:17:38.858Z,5.13
2022-11-17T02:20:42.127Z,3.90
2022-11-17T02:24:09.889Z,3.70
2022-11-17T02:27:41.358Z,4.23
2022-11-17T02:30:32.548Z,2.30
2022-11-17T02:33:26.396Z,2.83
2022-11-17T02:36:18.818Z,3.37
2022-11-17T02:39:11.995Z,3.40
2022-11-17T02:42:05.398Z,2.00
2022-11-17T02:44:56.779Z,2.77
2022-11-17T02:47:45.129Z,2.87
2022-11-17T02:50:33.444Z,2.07
2022-11-17T02:53:21.964Z,2.40
2022-11-17T02:56:10.333Z,2.60
2022-11-17T02:59:01.223Z,3.13
2022-11-17T03:02:21.130Z,3.57
2022-11-17T03:05:13.647Z,2.57
2022-11-17T03:08:12.031Z,3.23
2022-11-17T03:11:02.599Z,2.83
2022-11-17T03:13:58.047Z,4.20
2022-11-17T03:16:51.776Z,2.57
2022-11-17T03:19:44.729Z,3.77
2022-11-17T03:22:35.378Z,1.73
2022-11-17T03:25:24.304Z,3.57
2022-11-17T03:28:12.653Z,1.60
2022-11-17T03:31:01.038Z,1.83
2022-11-17T03:33:49.884Z,3.30
2022-11-17T03:36:42.511Z,1.77
2022-11-17T03:39:32.728Z,2.27
2022-11-17T03:42:23.459Z,3.87
2022-11-17T03:45:15.357Z,1.53
2022-11-17T03:48:08.169Z,1.40
2022-11-17T03:50:59.488Z,2.80
2022-11-17T03:53:49.211Z,2.67
2022-11-17T03:56:41.987Z,2.43
2022-11-17T03:59:34.569Z,1.50
2022-11-17T04:02:23.132Z,2.47
2022-11-17T04:05:11.943Z,1.67
2022-11-17T04:08:00.309Z,1.63
2022-11-17T04:11:07.636Z,3.37
2022-11-17T04:14:13.931Z,7.03
2022-11-17T04:17:02.250Z,1.47
2022-11-17T04:19:50.683Z,1.97
2022-11-17T04:22:39.141Z,3.17
2022-11-17T04:25:41.457Z,1.60
2022-11-17T04:28:37.774Z,1.50
2022-11-17T04:31:27.573Z,1.63
2022-11-17T04:34:15.960Z,2.00
2022-11-17T04:37:17.081Z,3.47
2022-11-17T04:40:07.304Z,1.63
2022-11-17T04:42:54.726Z,1.87
2022-11-17T04:45:44.477Z,1.77
2022-11-17T04:48:33.017Z,1.30
2022-11-17T04:51:21.708Z,1.57
2022-11-17T04:54:11.496Z,3.93
2022-11-17T04:56:59.878Z,1.73
2022-11-17T04:59:48.281Z,2.57
2022-11-17T05:02:38.024Z,3.27
2022-11-17T05:05:26.429Z,1.57
2022-11-17T05:08:14.812Z,1.30
2022-11-17T05:11:20.639Z,1.27
2022-11-17T05:14:09.210Z,2.07
2022-11-17T05:17:10.448Z,2.47
2022-11-17T05:20:01.210Z,2.40
2022-11-17T05:23:18.754Z,2.43
2022-11-17T05:26:07.126Z,2.60
2022-11-17T05:28:56.741Z,2.50
2022-11-17T05:31:45.272Z,2.40
2022-11-17T05:34:33.620Z,1.30
2022-11-17T05:37:23.406Z,1.40
2022-11-17T05:40:12.620Z,1.10
2022-11-17T05:43:01.012Z,1.50
2022-11-17T05:45:49.350Z,1.07
2022-11-17T05:48:37.898Z,1.73
2022-11-17T05:51:26.284Z,2.60
2022-11-17T05:54:16.014Z,2.00
2022-11-17T05:57:06.368Z,3.73
2022-11-17T05:59:56.787Z,1.80
2022-11-17T06:02:47.276Z,2.00
2022-11-17T06:05:35.636Z,1.30
2022-11-17T06:08:24.032Z,1.97
2022-11-17T06:11:14.104Z,1.57
2022-11-17T06:14:02.461Z,2.00
2022-11-17T06:16:52.006Z,1.80
2022-11-17T06:19:42.210Z,1.87
2022-11-17T06:22:30.569Z,2.60
2022-11-17T06:25:19.197Z,6.93
2022-11-17T06:28:11.921Z,1.87
2022-11-17T06:31:00.590Z,1.57
2022-11-17T06:33:48.966Z,3.37
2022-11-17T06:36:37.376Z,1.53
2022-11-17T06:39:25.749Z,2.07
2022-11-17T06:42:14.099Z,1.83
2022-11-17T06:45:03.795Z,4.93
2022-11-17T06:47:53.871Z,2.17
2022-11-17T06:50:42.896Z,2.50
2022-11-17T06:53:31.516Z,3.37
2022-11-17T06:56:20.146Z,3.17
2022-11-17T06:59:08.449Z,3.73
2022-11-17T07:01:58.159Z,1.73
2022-11-17T07:04:26.202Z,3.23
2022-11-17T07:06:54.386Z,3.23
2022-11-17T07:09:25.297Z,3.57
2022-11-17T07:11:53.486Z,2.77
2022-11-17T07:14:21.779Z,1.93
2022-11-17T07:16:49.843Z,3.93
2022-11-17T07:19:19.510Z,2.77
2022-11-17T07:21:47.686Z,2.23
2022-11-17T07:24:16.166Z,2.43
2022-11-17T07:26:45.020Z,3.27
2022-11-17T07:29:13.192Z,2.33
2022-11-17T07:31:41.541Z,1.40
2022-11-17T07:34:09.939Z,2.97
2022-11-17T07:36:39.432Z,3.83
2022-11-17T07:39:07.723Z,2.13
2022-11-17T07:41:35.846Z,4.23
2022-11-17T07:44:04.088Z,3.87
2022-11-17T07:46:32.221Z,2.67
2022-11-17T07:49:00.324Z,3.07
2022-11-17T07:51:28.385Z,3.73
2022-11-17T07:53:57.871Z,2.47
2022-11-17T07:56:26.069Z,1.70
2022-11-17T07:58:55.222Z,1.97
2022-11-17T08:01:23.339Z,3.20
2022-11-17T08:03:51.542Z,2.50
2022-11-17T08:06:19.724Z,1.57
2022-11-17T08:08:48.419Z,3.57
2022-11-17T08:11:17.914Z,3.20
2022-11-17T08:13:46.105Z,2.87
2022-11-17T08:16:14.552Z,3.13
2022-11-17T08:18:45.965Z,5.10
2022-11-17T08:21:17.057Z,1.70
2022-11-17T08:23:45.385Z,4.40
2022-11-17T08:26:13.618Z,4.63
2022-11-17T08:28:43.110Z,4.30
2022-11-17T08:31:11.177Z,5.27
2022-11-17T08:33:39.229Z,5.80
2022-11-17T08:36:08.063Z,5.37
2022-11-17T08:38:36.642Z,2.90
2022-11-17T08:41:06.454Z,4.73
2022-11-17T08:43:34.637Z,5.20
2022-11-17T08:46:04.103Z,4.30
2022-11-17T08:48:33.066Z,2.13
2022-11-17T08:51:06.394Z,3.17
2022-11-17T08:53:34.619Z,3.13
2022-11-17T08:56:02.751Z,2.90
2022-11-17T08:58:30.871Z,2.47
2022-11-17T09:01:04.939Z,14.43
2022-11-17T09:03:34.873Z,6.07
2022-11-17T09:06:04.108Z,5.23
2022-11-17T09:08:47.949Z,5.27
2022-11-17T09:11:16.672Z,3.70
2022-11-17T09:13:45.636Z,4.30
2022-11-17T09:16:14.006Z,5.53
2022-11-17T09:18:43.519Z,6.53
2022-11-17T09:21:13.238Z,6.53
2022-11-17T09:23:41.320Z,6.20
2022-11-17T09:26:10.873Z,3.60
2022-11-17T09:28:39.520Z,4.80
2022-11-17T09:31:09.055Z,5.70
2022-11-17T09:33:37.417Z,6.37
2022-11-17T09:36:08.280Z,6.30
2022-11-17T09:38:36.934Z,5.40
2022-11-17T09:41:22.544Z,7.30
2022-11-17T09:43:55.554Z,4.63
2022-11-17T09:46:28.716Z,8.13
2022-11-17T09:49:03.663Z,5.60
2022-11-17T09:51:33.135Z,5.03
2022-11-17T09:54:04.727Z,3.83
2022-11-17T09:56:32.828Z,8.07
2022-11-17T09:59:04.246Z,6.00
2022-11-17T10:01:32.338Z,5.17
2022-11-17T10:04:01.390Z,8.00
2022-11-17T10:06:32.082Z,6.83
2022-11-17T10:09:02.732Z,5.93
2022-11-17T10:11:35.833Z,7.63
2022-11-17T10:14:12.271Z,7.80
2022-11-17T10:16:42.058Z,7.97
2022-11-17T10:19:17.802Z,7.40
2022-11-17T10:21:48.817Z,7.93
2022-11-17T10:24:35.765Z,6.30
2022-11-17T10:27:04.365Z,6.23
2022-11-17T10:29:32.447Z,7.23
2022-11-17T10:32:01.640Z,9.67
2022-11-17T10:34:40.762Z,8.30
2022-11-17T10:37:27.862Z,7.13
2022-11-17T10:40:22.068Z,5.87
2022-11-17T10:43:18.887Z,8.17
2022-11-17T10:45:47.193Z,10.37
2022-11-17T10:48:29.108Z,6.77
2022-11-17T10:50:58.337Z,8.77
2022-11-17T10:53:43.383Z,6.23
2022-11-17T10:56:15.092Z,5.03
2022-11-17T10:59:02.173Z,5.33
2022-11-17T11:01:32.647Z,6.63
2022-11-17T11:04:01.029Z,4.93
2022-11-17T11:06:29.702Z,6.27
2022-11-17T11:09:04.526Z,7.50
2022-11-17T11:11:42.133Z,6.37
2022-11-17T11:14:21.586Z,7.40
2022-11-17T11:16:50.466Z,8.07
2022-11-17T11:19:19.907Z,4.87
2022-11-17T11:22:42.143Z,4.60
2022-11-17T11:25:20.499Z,5.60
2022-11-17T11:28:05.277Z,4.97
2022-11-17T11:30:37.378Z,6.13
2022-11-17T11:33:24.862Z,3.07
2022-11-17T11:36:15.178Z,4.50
2022-11-17T11:38:51.838Z,3.83
2022-11-17T11:41:29.824Z,4.90
2022-11-17T11:44:12.830Z,5.23
2022-11-17T11:46:46.209Z,5.17
2022-11-17T11:49:19.678Z,5.10
2022-11-17T11:51:47.882Z,4.50
2022-11-17T11:54:18.692Z,4.10
2022-11-17T11:56:49.144Z,6.63
2022-11-17T11:59:20.353Z,4.97
2022-11-17T12:01:51.505Z,4.40
2022-11-17T12:04:27.581Z,5.10
2022-11-17T12:07:00.586Z,7.63
2022-11-17T12:09:54.057Z,5.37
2022-11-17T12:12:29.877Z,5.60
2022-11-17T12:15:34.484Z,3.73
2022-11-17T12:18:06.483Z,6.30
2022-11-17T12:20:56.305Z,5.87
2022-11-17T12:23:50.552Z,6.50
2022-11-17T12:26:26.874Z,4.67
2022-11-17T12:29:31.855Z,6.67
2022-11-17T12:32:01.838Z,6.13
2022-11-17T12:34:32.046Z,6.63
2022-11-17T12:37:30.692Z,3.67
2022-11-17T12:40:08.001Z,5.47
2022-11-17T12:42:36.835Z,5.30
2022-11-17T12:45:12.168Z,6.93
2022-11-17T12:47:40.937Z,8.30
2022-11-17T12:51:00.559Z,5.30
2022-11-17T12:53:52.339Z,6.67
2022-11-17T12:56:34.344Z,5.17
2022-11-17T13:00:09.930Z,5.13
2022-11-17T13:03:00.380Z,8.53
2022-11-17T13:05:30.085Z,6.43
2022-11-17T13:08:33.484Z,10.50
2022-11-17T13:11:07.134Z,7.93
2022-11-17T13:13:37.120Z,7.23
2022-11-17T13:16:09.841Z,8.77
2022-11-17T13:18:39.388Z,9.23
2022-11-17T13:21:17.813Z,5.43
2022-11-17T13:23:46.063Z,5.77
2022-11-17T13:26:22.577Z,5.33
2022-11-17T13:29:04.454Z,6.13
2022-11-17T13:31:34.048Z,9.20
2022-11-17T13:34:06.081Z,6.00
2022-11-17T13:36:34.430Z,5.87
2022-11-17T13:39:03.064Z,5.27
2022-11-17T13:41:35.089Z,6.70
2022-11-17T13:44:03.208Z,6.37
2022-11-17T13:46:32.634Z,9.23
2022-11-17T13:49:00.696Z,6.67
2022-11-17T13:51:31.677Z,8.63
2022-11-17T13:54:01.550Z,6.53
2022-11-17T13:56:35.648Z,9.13
2022-11-17T13:59:06.258Z,4.67
2022-11-17T14:01:35.884Z,6.97
2022-11-17T14:04:20.171Z,5.47
2022-11-17T14:06:57.172Z,6.47
2022-11-17T14:09:25.897Z,7.17
2022-11-17T14:11:53.986Z,6.10
2022-11-17T14:14:29.007Z,5.00
2022-11-17T14:16:59.224Z,8.50
2022-11-17T14:19:33.769Z,3.67
2022-11-17T14:22:04.413Z,3.60
2022-11-17T14:24:33.032Z,4.77
2022-11-17T14:27:01.235Z,5.93
2022-11-17T14:29:29.599Z,4.80
2022-11-17T14:31:59.032Z,2.67
2022-11-17T14:34:27.097Z,3.83
2022-11-17T14:36:56.095Z,5.90
2022-11-17T14:39:24.193Z,4.20
2022-11-17T14:41:52.496Z,2.67
2022-11-17T14:44:21.810Z,3.03
2022-11-17T14:46:49.903Z,3.43
2022-11-17T14:49:19.344Z,4.90
2022-11-17T14:51:49.620Z,3.80
2022-11-17T14:54:17.750Z,2.03
2022-11-17T14:56:48.904Z,1.90
2022-11-17T14:59:18.131Z,2.10
2022-11-17T15:01:46.399Z,4.00
2022-11-17T15:04:48.260Z,3.13
2022-11-17T15:07:05.386Z,4.27
2022-11-17T15:09:33.879Z,3.10
2022-11-17T15:12:02.100Z,1.57
2022-11-17T15:14:30.267Z,2.10
2022-11-17T15:16:58.420Z,2.23
2022-11-17T15:19:26.586Z,2.27
2022-11-17T15:21:54.676Z,3.00
2022-11-17T15:24:24.126Z,3.40
2022-11-17T15:26:52.237Z,2.53
2022-11-17T15:29:21.460Z,3.93
2022-11-17T15:31:49.527Z,3.57
2022-11-17T15:34:20.438Z,2.33
2022-11-17T15:36:49.084Z,3.33
2022-11-17T15:39:17.672Z,4.40
2022-11-17T15:41:48.713Z,1.87
2022-11-17T15:44:18.637Z,3.23
2022-11-17T15:46:48.012Z,4.10
2022-11-17T15:49:16.737Z,3.83
2022-11-17T15:51:45.051Z,3.57
2022-11-17T15:54:18.540Z,5.63
2022-11-17T15:56:50.810Z,3.10
2022-11-17T15:59:19.364Z,5.60
2022-11-17T16:01:47.783Z,5.93
2022-11-17T16:04:16.223Z,5.87
2022-11-17T16:06:45.478Z,7.30
2022-11-17T16:09:13.804Z,6.07
2022-11-17T16:11:42.101Z,4.10
2022-11-17T16:14:11.750Z,6.40
2022-11-17T16:16:40.088Z,3.90
2022-11-17T16:19:08.377Z,5.47
2022-11-17T16:21:36.463Z,6.30
2022-11-17T16:24:05.341Z,6.43
2022-11-17T16:26:33.513Z,5.00
2022-11-17T16:29:02.674Z,3.43
2022-11-17T16:31:33.556Z,5.17
2022-11-17T16:34:02.780Z,6.63
2022-11-17T16:36:36.192Z,3.30
2022-11-17T16:39:06.231Z,3.67
2022-11-17T16:41:35.441Z,3.33
2022-11-17T16:44:03.945Z,3.87
2022-11-17T16:46:33.494Z,5.73
2022-11-17T16:49:02.771Z,3.67
2022-11-17T16:51:30.974Z,3.93
2022-11-17T16:54:00.696Z,7.13
2022-11-17T16:56:28.996Z,4.50
2022-11-17T16:58:57.098Z,4.90
2022-11-17T17:01:26.411Z,4.57
2022-11-17T17:03:59.195Z,6.03
2022-11-17T17:06:27.735Z,6.60
2022-11-17T17:08:56.091Z,3.03
2022-11-17T17:11:24.273Z,9.30
2022-11-17T17:13:52.447Z,10.70
2022-11-17T17:16:20.845Z,7.73
2022-11-17T17:18:49.012Z,6.33
2022-11-17T17:21:19.628Z,6.73
2022-11-17T17:23:47.733Z,7.13
2022-11-17T17:26:18.300Z,8.83
2022-11-17T17:28:47.096Z,3.10
2022-11-17T17:31:20.998Z,5.83
2022-11-17T17:33:50.264Z,5.50
2022-11-17T17:36:21.187Z,6.20
2022-11-17T17:38:54.931Z,8.17
2022-11-17T17:41:24.585Z,9.60
2022-11-17T17:43:56.570Z,5.63
2022-11-17T17:46:24.806Z,6.37
2022-11-17T17:48:53.081Z,5.40
2022-11-17T17:51:24.889Z,6.50
2022-11-17T17:53:53.283Z,5.10
2022-11-17T17:56:22.110Z,3.83
2022-11-17T17:58:50.762Z,6.93
2022-11-17T18:01:20.050Z,4.53
2022-11-17T18:03:49.302Z,4.07
2022-11-17T18:06:18.608Z,3.37
2022-11-17T18:08:48.304Z,6.67
2022-11-17T18:11:18.251Z,3.97
2022-11-17T18:13:47.558Z,4.97
2022-11-17T18:16:17.476Z,4.23
2022-11-17T18:18:46.154Z,14.80
2022-11-17T18:21:15.882Z,6.73
2022-11-17T18:23:44.340Z,5.00
2022-11-17T18:26:16.547Z,4.90
2022-11-17T18:28:52.429Z,6.90
2022-11-17T18:31:20.587Z,7.57
2022-11-17T18:33:51.959Z,6.30
2022-11-17T18:36:21.068Z,6.10
2022-11-17T18:38:49.256Z,6.50
2022-11-17T18:41:18.740Z,8.63
2022-11-17T18:43:47.060Z,5.60
2022-11-17T18:46:16.467Z,6.73
2022-11-17T18:48:47.624Z,8.33
2022-11-17T18:51:19.536Z,8.87
2022-11-17T18:53:48.757Z,10.57
2022-11-17T18:56:21.351Z,4.70
2022-11-17T18:58:49.499Z,7.37
2022-11-17T19:01:18.840Z,4.30
2022-11-17T19:03:48.157Z,6.13
2022-11-17T19:06:16.515Z,7.73
2022-11-17T19:08:44.847Z,7.47
2022-11-17T19:11:13.215Z,5.97
2022-11-17T19:13:43.099Z,5.67
2022-11-17T19:16:12.277Z,8.63
2022-11-17T19:18:40.535Z,6.80
2022-11-17T19:21:10.160Z,5.43
2022-11-17T19:23:39.552Z,9.63
2022-11-17T19:26:08.964Z,12.90
2022-11-17T19:28:37.289Z,8.47
2022-11-17T19:31:08.585Z,8.23
2022-11-17T19:33:38.086Z,7.10
2022-11-17T19:36:07.736Z,5.87
2022-11-17T19:38:37.915Z,8.63
2022-11-17T19:41:06.606Z,9.33
2022-11-17T19:43:37.920Z,12.40
2022-11-17T19:46:11.740Z,11.30
2022-11-17T19:48:40.147Z,17.87
2022-11-17T19:51:15.268Z,12.53
2022-11-17T19:53:43.425Z,15.13
2022-11-17T19:56:11.589Z,7.30
2022-11-17T19:58:40.992Z,8.43
2022-11-17T20:01:12.448Z,6.50
2022-11-17T20:03:40.995Z,6.87
2022-11-17T20:06:09.454Z,3.90
2022-11-17T20:08:37.638Z,6.20
2022-11-17T20:11:07.396Z,9.57
2022-11-17T20:13:35.887Z,5.70
2022-11-17T20:16:10.364Z,4.70
2022-11-17T20:18:41.637Z,6.70
2022-11-17T20:21:09.987Z,6.57
2022-11-17T20:23:38.867Z,6.93
2022-11-17T20:26:07.544Z,8.57
2022-11-17T20:28:36.071Z,4.03
2022-11-17T20:31:07.839Z,3.97
2022-11-17T20:33:35.950Z,4.17
2022-11-17T20:36:06.449Z,5.70
2022-11-17T20:38:34.734Z,3.43
2022-11-17T20:41:03.025Z,2.23
2022-11-17T20:43:31.362Z,3.80
2022-11-17T20:45:59.533Z,4.80
2022-11-17T20:48:29.009Z,7.27
2022-11-17T20:50:58.473Z,4.63
2022-11-17T20:53:28.345Z,3.77
2022-11-17T20:55:56.913Z,4.73
2022-11-17T20:58:25.100Z,3.20
2022-11-17T21:00:53.340Z,3.93
2022-11-17T21:03:40.130Z,5.47
2022-11-17T21:06:29.543Z,4.07
2022-11-17T21:09:19.574Z,3.43
2022-11-17T21:12:08.822Z,4.20
2022-11-17T21:14:57.194Z,6.53
2022-11-17T21:18:03.364Z,3.33
2022-11-17T21:20:51.758Z,3.77
2022-11-17T21:23:40.765Z,5.53
2022-11-17T21:26:30.666Z,6.50
2022-11-17T21:29:19.421Z,6.63
2022-11-17T21:32:08.201Z,8.20
2022-11-17T21:34:57.458Z,4.93
2022-11-17T21:37:45.960Z,6.97
2022-11-17T21:40:34.371Z,5.60
2022-11-17T21:43:24.103Z,3.53
2022-11-17T21:46:15.211Z,6.27
2022-11-17T21:49:03.770Z,3.83
2022-11-17T21:51:52.203Z,3.43
2022-11-17T21:54:40.582Z,2.33
2022-11-17T21:57:29.333Z,4.40
2022-11-17T22:00:19.774Z,5.07
2022-11-17T22:03:08.222Z,4.43
2022-11-17T22:06:05.165Z,5.70
2022-11-17T22:08:54.865Z,4.17
2022-11-17T22:11:43.249Z,5.17
2022-11-17T22:14:31.994Z,4.70
2022-11-17T22:17:21.743Z,3.77
2022-11-17T22:20:10.996Z,4.00
2022-11-17T22:22:59.327Z,3.57
2022-11-17T22:25:54.956Z,5.60
2022-11-17T22:28:43.385Z,3.83
2022-11-17T22:31:31.763Z,4.50
2022-11-17T22:34:21.488Z,4.03
2022-11-17T22:37:09.861Z,4.10
2022-11-17T22:39:58.256Z,4.77
2022-11-17T22:42:46.633Z,5.13
2022-11-17T22:45:37.688Z,4.77
2022-11-17T22:48:26.058Z,4.73
2022-11-17T22:51:36.416Z,4.40
2022-11-17T22:54:24.765Z,3.87
2022-11-17T22:57:13.128Z,4.17
2022-11-17T23:00:01.504Z,4.37
2022-11-17T23:02:49.887Z,3.87
2022-11-17T23:05:38.216Z,4.73
2022-11-17T23:08:27.960Z,4.67
2022-11-17T23:11:36.039Z,4.00
2022-11-17T23:14:24.694Z,3.93
2022-11-17T23:17:13.088Z,3.13
2022-11-17T23:20:01.573Z,2.67
2022-11-17T23:22:50.026Z,3.00
2022-11-17T23:25:39.744Z,5.10
2022-11-17T23:28:28.124Z,4.57
2022-11-17T23:31:17.328Z,3.40
2022-11-17T23:34:05.698Z,3.67
2022-11-17T23:36:54.083Z,3.80
2022-11-17T23:39:42.516Z,3.53
2022-11-17T23:42:32.805Z,3.37
2022-11-17T23:45:21.825Z,3.97
2022-11-17T23:48:10.197Z,3.50
2022-11-17T23:50:58.573Z,2.60
2022-11-17T23:53:47.282Z,2.00
2022-11-17T23:56:35.695Z,5.87
2022-11-17T23:59:25.409Z,3.30
